Date,TemperatureHighF,TemperatureAvgF,TemperatureLowF,DewpointHighF,DewpointAvgF,DewpointLowF,HumidityHigh,HumidityAvg,HumidityLow,PressureMaxIn,PressureMinIn,WindSpeedMaxMPH,WindSpeedAvgMPH,GustSpeedMaxMPH,PrecipitationSumIn
2013-1-1,10.3,0.1,-11.6,7.0,-3.7,-15.5,90,83,70,30.66,30.23,17,2,20,0.00
2013-1-2,18.3,14.8,7.9,16.6,12.8,5.1,93,92,88,30.23,30.08,13,2,13,0.00
2013-1-3,18.2,12.8,4.4,15.1,8.5,1.6,99,83,66,30.33,29.92,31,6,31,0.00
2013-1-4,21.8,17.6,12.0,19.6,14.1,9.6,92,86,83,30.26,29.89,20,5,25,0.00
2013-1-5,26.0,18.2,5.0,21.9,15.6,1.7,93,89,80,30.35,29.99,12,2,14,0.00
2013-1-6,19.7,15.7,11.6,16.2,11.8,7.6,93,84,67,30.34,29.99,20,3,20,0.00
2013-1-7,32.0,24.8,17.7,25.2,20.2,14.5,94,82,74,30.04,29.53,24,7,31,0.00
2013-1-8,31.9,27.7,23.2,28.2,23.2,19.4,94,83,72,29.99,29.51,17,2,19,0.02
2013-1-9,28.1,24.2,20.6,26.0,20.9,17.3,93,87,83,30.46,29.51,28,7,29,0.00
2013-1-10,39.7,31.2,19.8,26.0,20.5,14.8,91,66,41,30.41,29.62,25,6,25,0.01
2013-1-11,34.6,32.7,30.6,33.4,31.5,25.2,97,95,73,29.63,29.17,13,2,17,0.21
2013-1-12,36.2,19.4,4.5,35.4,16.6,0.0,97,88,78,30.19,29.02,21,5,26,0.03
2013-1-13,4.5,0.8,-2.1,0.6,-2.6,-5.3,87,85,83,30.51,30.17,17,4,17,0.00
2013-1-14,1.7,-1.5,-4.3,-2.0,-5.3,-8.1,86,83,76,30.73,30.50,15,3,15,0.00
2013-1-15,18.8,10.9,1.8,10.1,4.3,-1.9,86,75,57,30.62,29.68,16,4,22,0.00
2013-1-16,20.0,8.8,-12.7,18.2,3.1,-17.4,93,77,57,30.56,29.43,25,7,25,0.02
2013-1-17,-2.3,-10.8,-22.6,-11.4,-17.2,-27.7,92,73,60,30.95,30.56,20,3,21,0.00
2013-1-18,13.6,2.2,-20.7,10.5,-1.3,-26.0,88,84,75,30.87,29.95,10,1,12,0.08
2013-1-19,23.5,8.1,-10.3,21.9,5.3,-14.4,94,88,82,30.32,29.52,23,6,26,0.10
2013-1-20,-4.3,-11.7,-16.6,-8.4,-15.8,-21.0,94,81,80,30.81,30.32,19,4,20,0.00
2013-1-21,-14.5,-21.2,-24.9,-18.6,-26.0,-30.0,92,78,76,30.93,30.61,17,4,20,0.00
2013-1-22,-10.7,-17.7,-26.5,-15.1,-22.3,-31.5,81,79,76,31.03,30.74,14,2,16,0.00
2013-1-23,-5.9,-11.9,-20.0,-8.2,-16.1,-24.8,92,81,78,31.25,30.59,20,4,20,0.00
2013-1-24,5.0,-11.7,-35.1,1.6,-16.3,-40.6,86,79,73,31.54,30.52,15,2,15,0.00
2013-1-25,8.9,5.7,1.1,5.0,2.4,-2.2,88,86,81,30.57,30.16,15,3,15,0.06
2013-1-26,17.7,4.6,-16.0,15.3,1.4,-20.6,91,86,79,30.85,30.32,17,2,21,0.00
2013-1-27,28.1,20.8,12.2,24.3,17.4,9.4,92,87,78,30.35,29.88,14,2,17,0.00
2013-1-28,29.9,27.4,25.8,27.9,26.0,24.3,96,94,91,29.88,29.67,16,2,16,0.00
2013-1-29,29.2,25.9,18.7,28.2,24.3,16.3,96,93,87,29.71,29.41,20,3,20,0.05
2013-1-30,18.7,7.1,-0.8,16.3,3.7,-4.6,93,86,81,29.90,29.64,22,7,22,0.00
2013-1-31,-0.4,-3.8,-10.6,-4.3,-8.1,-14.7,85,81,75,30.50,29.89,22,7,22,0.00